sensor_id;sensor_type;location;lat;lon;timestamp;pressure;altitude;pressure_sealevel;temperature;humidity
40692;BME280;26377;53.344;14.886;2022-10-22T00:00:38;100815.66;;;12.60;73.82
40692;BME280;26377;53.344;14.886;2022-10-22T00:03:08;100827.06;;;12.62;73.83
40692;BME280;26377;53.344;14.886;2022-10-22T00:05:35;100831.34;;;12.65;73.89
40692;BME280;26377;53.344;14.886;2022-10-22T00:08:05;100834.30;;;12.67;73.92
40692;BME280;26377;53.344;14.886;2022-10-22T00:10:37;100824.89;;;12.69;73.99
40692;BME280;26377;53.344;14.886;2022-10-22T00:13:07;100823.39;;;12.72;74.02
40692;BME280;26377;53.344;14.886;2022-10-22T00:15:36;100817.95;;;12.73;74.05
40692;BME280;26377;53.344;14.886;2022-10-22T00:18:05;100834.63;;;12.77;74.10
40692;BME280;26377;53.344;14.886;2022-10-22T00:20:32;100842.90;;;12.79;74.12
40692;BME280;26377;53.344;14.886;2022-10-22T00:23:02;100836.99;;;12.81;74.15
40692;BME280;26377;53.344;14.886;2022-10-22T00:25:34;100834.70;;;12.82;74.18
40692;BME280;26377;53.344;14.886;2022-10-22T00:28:03;100834.16;;;12.84;74.22
40692;BME280;26377;53.344;14.886;2022-10-22T00:30:30;100833.20;;;12.85;74.26
40692;BME280;26377;53.344;14.886;2022-10-22T00:33:03;100833.48;;;12.88;74.32
40692;BME280;26377;53.344;14.886;2022-10-22T00:35:32;100830.28;;;12.90;74.32
40692;BME280;26377;53.344;14.886;2022-10-22T00:37:59;100825.33;;;12.91;74.37
40692;BME280;26377;53.344;14.886;2022-10-22T00:40:28;100833.61;;;12.93;74.40
40692;BME280;26377;53.344;14.886;2022-10-22T00:42:57;100833.02;;;12.95;74.42
40692;BME280;26377;53.344;14.886;2022-10-22T00:45:29;100824.98;;;12.97;74.47
40692;BME280;26377;53.344;14.886;2022-10-22T00:50:59;100820.81;;;13.00;74.50
40692;BME280;26377;53.344;14.886;2022-10-22T00:53:31;100822.52;;;13.01;74.55
40692;BME280;26377;53.344;14.886;2022-10-22T00:56:04;100814.06;;;13.02;74.55
40692;BME280;26377;53.344;14.886;2022-10-22T00:58:35;100809.95;;;13.03;74.58
40692;BME280;26377;53.344;14.886;2022-10-22T01:01:05;100807.70;;;13.04;74.62
40692;BME280;26377;53.344;14.886;2022-10-22T01:03:36;100814.23;;;13.06;74.65
40692;BME280;26377;53.344;14.886;2022-10-22T01:06:04;100823.00;;;13.08;74.66
40692;BME280;26377;53.344;14.886;2022-10-22T01:11:45;100830.81;;;13.11;74.67
40692;BME280;26377;53.344;14.886;2022-10-22T01:14:31;100827.57;;;13.13;74.70
40692;BME280;26377;53.344;14.886;2022-10-22T01:17:23;100815.12;;;13.13;74.71
40692;BME280;26377;53.344;14.886;2022-10-22T01:20:07;100815.12;;;13.13;74.75
40692;BME280;26377;53.344;14.886;2022-10-22T01:29:09;100819.86;;;13.15;74.76
40692;BME280;26377;53.344;14.886;2022-10-22T01:31:57;100814.91;;;13.16;74.80
40692;BME280;26377;53.344;14.886;2022-10-22T01:34:30;100829.94;;;13.17;74.79
40692;BME280;26377;53.344;14.886;2022-10-22T01:37:02;100803.70;;;13.18;74.83
40692;BME280;26377;53.344;14.886;2022-10-22T01:39:33;100803.58;;;13.20;74.86
40692;BME280;26377;53.344;14.886;2022-10-22T01:42:06;100813.31;;;13.21;74.85
40692;BME280;26377;53.344;14.886;2022-10-22T01:44:35;100791.41;;;13.23;74.91
40692;BME280;26377;53.344;14.886;2022-10-22T01:47:20;100784.66;;;13.24;74.97
40692;BME280;26377;53.344;14.886;2022-10-22T01:50:26;100796.06;;;13.26;74.94
40692;BME280;26377;53.344;14.886;2022-10-22T01:53:24;100778.66;;;13.28;74.99
40692;BME280;26377;53.344;14.886;2022-10-22T02:01:58;100765.25;;;13.29;75.03
40692;BME280;26377;53.344;14.886;2022-10-22T02:05:02;100776.28;;;13.30;75.05
40692;BME280;26377;53.344;14.886;2022-10-22T02:07:45;100779.44;;;13.30;75.03
40692;BME280;26377;53.344;14.886;2022-10-22T02:10:12;100801.59;;;13.30;75.03
40692;BME280;26377;53.344;14.886;2022-10-22T02:12:43;100818.91;;;13.30;75.02
40692;BME280;26377;53.344;14.886;2022-10-22T02:15:17;100823.69;;;13.32;75.02
40692;BME280;26377;53.344;14.886;2022-10-22T02:17:46;100821.39;;;13.33;75.06
40692;BME280;26377;53.344;14.886;2022-10-22T02:20:25;100831.09;;;13.34;75.06
40692;BME280;26377;53.344;14.886;2022-10-22T02:22:54;100832.80;;;13.35;75.14
40692;BME280;26377;53.344;14.886;2022-10-22T02:25:24;100828.80;;;13.35;75.16
40692;BME280;26377;53.344;14.886;2022-10-22T02:28:12;100838.04;;;13.37;75.20
40692;BME280;26377;53.344;14.886;2022-10-22T02:30:53;100833.95;;;13.38;75.25
40692;BME280;26377;53.344;14.886;2022-10-22T02:33:29;100825.38;;;13.40;75.35
40692;BME280;26377;53.344;14.886;2022-10-22T02:35:58;100830.15;;;13.42;75.33
40692;BME280;26377;53.344;14.886;2022-10-22T02:38:28;100831.39;;;13.44;75.36
40692;BME280;26377;53.344;14.886;2022-10-22T02:40:58;100832.14;;;13.46;75.37
40692;BME280;26377;53.344;14.886;2022-10-22T02:43:27;100836.05;;;13.47;75.40
40692;BME280;26377;53.344;14.886;2022-10-22T02:45:55;100842.34;;;13.46;75.37
40692;BME280;26377;53.344;14.886;2022-10-22T02:48:22;100828.05;;;13.47;75.43
40692;BME280;26377;53.344;14.886;2022-10-22T02:50:50;100831.46;;;13.49;75.44
40692;BME280;26377;53.344;14.886;2022-10-22T02:53:17;100830.03;;;13.51;75.46
40692;BME280;26377;53.344;14.886;2022-10-22T02:55:49;100833.95;;;13.52;75.49
40692;BME280;26377;53.344;14.886;2022-10-22T02:58:17;100833.36;;;13.54;75.50
40692;BME280;26377;53.344;14.886;2022-10-22T03:00:44;100829.77;;;13.55;75.47
40692;BME280;26377;53.344;14.886;2022-10-22T03:03:12;100820.72;;;13.58;75.53
40692;BME280;26377;53.344;14.886;2022-10-22T03:05:41;100815.77;;;13.59;75.57
40692;BME280;26377;53.344;14.886;2022-10-22T03:08:10;100808.91;;;13.62;75.56
40692;BME280;26377;53.344;14.886;2022-10-22T03:10:39;100804.79;;;13.63;75.55
40692;BME280;26377;53.344;14.886;2022-10-22T03:13:07;100798.53;;;13.64;75.57
40692;BME280;26377;53.344;14.886;2022-10-22T03:15:34;100801.07;;;13.66;75.56
40692;BME280;26377;53.344;14.886;2022-10-22T03:18:01;100805.47;;;13.67;75.55
40692;BME280;26377;53.344;14.886;2022-10-22T03:20:30;100817.34;;;13.68;75.53
40692;BME280;26377;53.344;14.886;2022-10-22T03:22:59;100821.25;;;13.70;75.52
40692;BME280;26377;53.344;14.886;2022-10-22T03:25:29;100820.42;;;13.69;75.52
40692;BME280;26377;53.344;14.886;2022-10-22T03:28:01;100813.66;;;13.71;75.53
40692;BME280;26377;53.344;14.886;2022-10-22T03:30:32;100815.37;;;13.72;75.58
40692;BME280;26377;53.344;14.886;2022-10-22T03:33:00;100821.53;;;13.72;75.57
40692;BME280;26377;53.344;14.886;2022-10-22T03:35:27;100821.53;;;13.72;75.58
40692;BME280;26377;53.344;14.886;2022-10-22T03:37:59;100815.27;;;13.73;75.61
40692;BME280;26377;53.344;14.886;2022-10-22T03:40:27;100812.11;;;13.74;75.64
40692;BME280;26377;53.344;14.886;2022-10-22T03:42:57;100805.45;;;13.74;75.70
40692;BME280;26377;53.344;14.886;2022-10-22T03:45:26;100810.22;;;13.76;75.70
40692;BME280;26377;53.344;14.886;2022-10-22T03:47:55;100812.11;;;13.74;75.71
40692;BME280;26377;53.344;14.886;2022-10-22T03:50:26;100817.34;;;13.75;75.75
40692;BME280;26377;53.344;14.886;2022-10-22T03:52:53;100812.02;;;13.75;75.78
40692;BME280;26377;53.344;14.886;2022-10-22T03:55:21;100814.69;;;13.75;75.76
40692;BME280;26377;53.344;14.886;2022-10-22T03:57:50;100820.39;;;13.76;75.77
40692;BME280;26377;53.344;14.886;2022-10-22T04:00:20;100817.34;;;13.75;75.76
40692;BME280;26377;53.344;14.886;2022-10-22T04:02:47;100823.55;;;13.76;75.80
40692;BME280;26377;53.344;14.886;2022-10-22T04:05:18;100819.55;;;13.76;75.81
40692;BME280;26377;53.344;14.886;2022-10-22T04:07:45;100829.25;;;13.77;75.84
40692;BME280;26377;53.344;14.886;2022-10-22T04:10:16;100830.69;;;13.75;75.83
40692;BME280;26377;53.344;14.886;2022-10-22T04:12:47;100824.76;;;13.77;75.88
40692;BME280;26377;53.344;14.886;2022-10-22T04:15:16;100827.33;;;13.79;75.95
40692;BME280;26377;53.344;14.886;2022-10-22T04:17:44;100822.87;;;13.79;75.93
40692;BME280;26377;53.344;14.886;2022-10-22T04:20:11;100821.91;;;13.80;75.96
40692;BME280;26377;53.344;14.886;2022-10-22T04:22:40;100820.02;;;13.82;76.00
40692;BME280;26377;53.344;14.886;2022-10-22T04:25:08;100817.22;;;13.84;76.02
40692;BME280;26377;53.344;14.886;2022-10-22T04:27:35;100814.47;;;13.85;75.98
40692;BME280;26377;53.344;14.886;2022-10-22T04:30:04;100812.30;;;13.85;75.99
40692;BME280;26377;53.344;14.886;2022-10-22T04:32:33;100805.12;;;13.85;75.97
40692;BME280;26377;53.344;14.886;2022-10-22T04:35:00;100805.50;;;13.86;75.97
40692;BME280;26377;53.344;14.886;2022-10-22T04:37:29;100810.74;;;13.88;76.01
40692;BME280;26377;53.344;14.886;2022-10-22T04:39:58;100815.61;;;13.88;76.02
40692;BME280;26377;53.344;14.886;2022-10-22T04:42:25;100819.12;;;13.89;75.99
40692;BME280;26377;53.344;14.886;2022-10-22T04:44:52;100816.95;;;13.88;75.99
40692;BME280;26377;53.344;14.886;2022-10-22T04:47:21;100815.61;;;13.88;75.98
40692;BME280;26377;53.344;14.886;2022-10-22T04:49:49;100815.24;;;13.87;75.97
40692;BME280;26377;53.344;14.886;2022-10-22T04:52:18;100816.58;;;13.87;76.01
40692;BME280;26377;53.344;14.886;2022-10-22T04:54:45;100811.42;;;13.84;76.00
40692;BME280;26377;53.344;14.886;2022-10-22T04:57:16;100811.80;;;13.85;76.05
40692;BME280;26377;53.344;14.886;2022-10-22T04:59:43;100819.80;;;13.85;76.07
40692;BME280;26377;53.344;14.886;2022-10-22T05:02:14;100814.96;;;13.85;76.07
40692;BME280;26377;53.344;14.886;2022-10-22T05:04:43;100821.13;;;13.85;76.06
40692;BME280;26377;53.344;14.886;2022-10-22T05:07:11;100820.67;;;13.86;76.08
40692;BME280;26377;53.344;14.886;2022-10-22T05:09:38;100818.84;;;13.86;76.08
40692;BME280;26377;53.344;14.886;2022-10-22T05:12:09;100828.58;;;13.87;76.07
40692;BME280;26377;53.344;14.886;2022-10-22T05:14:40;100820.58;;;13.87;76.08
40692;BME280;26377;53.344;14.886;2022-10-22T05:17:08;100829.91;;;13.87;76.15
40692;BME280;26377;53.344;14.886;2022-10-22T05:19:35;100839.25;;;13.87;76.12
40692;BME280;26377;53.344;14.886;2022-10-22T05:22:04;100842.00;;;13.86;76.07
40692;BME280;26377;53.344;14.886;2022-10-22T05:24:32;100849.91;;;13.87;76.14
40692;BME280;26377;53.344;14.886;2022-10-22T05:27:04;100849.91;;;13.87;76.18
40692;BME280;26377;53.344;14.886;2022-10-22T05:29:33;100847.34;;;13.86;76.18
40692;BME280;26377;53.344;14.886;2022-10-22T05:32:01;100850.00;;;13.86;76.19
40692;BME280;26377;53.344;14.886;2022-10-22T05:34:28;100856.17;;;13.86;76.24
40692;BME280;26377;53.344;14.886;2022-10-22T05:36:57;100857.91;;;13.87;76.29
40692;BME280;26377;53.344;14.886;2022-10-22T05:39:28;100856.67;;;13.86;76.30
40692;BME280;26377;53.344;14.886;2022-10-22T05:41:59;100849.50;;;13.86;76.36
40692;BME280;26377;53.344;14.886;2022-10-22T05:44:28;100848.95;;;13.88;76.43
40692;BME280;26377;53.344;14.886;2022-10-22T05:46:55;100843.03;;;13.90;76.47
40692;BME280;26377;53.344;14.886;2022-10-22T05:49:24;100838.93;;;13.92;76.48
40692;BME280;26377;53.344;14.886;2022-10-22T05:51:52;100846.84;;;13.93;76.50
40692;BME280;26377;53.344;14.886;2022-10-22T05:54:20;100848.08;;;13.95;76.52
40692;BME280;26377;53.344;14.886;2022-10-22T05:56:50;100850.66;;;13.96;76.53
40692;BME280;26377;53.344;14.886;2022-10-22T05:59:17;100861.20;;;13.98;76.57
40692;BME280;26377;53.344;14.886;2022-10-22T06:01:45;100863.77;;;13.99;76.62
40692;BME280;26377;53.344;14.886;2022-10-22T06:04:14;100863.68;;;14.01;76.63
40692;BME280;26377;53.344;14.886;2022-10-22T06:06:45;100868.33;;;14.04;76.65
40692;BME280;26377;53.344;14.886;2022-10-22T06:09:26;100867.37;;;14.05;76.70
40692;BME280;26377;53.344;14.886;2022-10-22T06:11:58;100863.87;;;14.05;76.76
40692;BME280;26377;53.344;14.886;2022-10-22T06:14:28;100865.02;;;14.08;76.80
40692;BME280;26377;53.344;14.886;2022-10-22T06:16:59;100866.63;;;14.10;76.80
40692;BME280;26377;53.344;14.886;2022-10-22T06:19:27;100872.11;;;14.14;76.83
40692;BME280;26377;53.344;14.886;2022-10-22T06:21:59;100874.59;;;14.17;76.86
40692;BME280;26377;53.344;14.886;2022-10-22T06:24:27;100859.27;;;14.21;76.84
40692;BME280;26377;53.344;14.886;2022-10-22T06:26:54;100862.62;;;14.24;76.89
40692;BME280;26377;53.344;14.886;2022-10-22T06:29:21;100867.73;;;14.27;76.89
40692;BME280;26377;53.344;14.886;2022-10-22T06:31:48;100861.74;;;14.31;76.85
40692;BME280;26377;53.344;14.886;2022-10-22T06:34:17;100871.23;;;14.35;76.89
40692;BME280;26377;53.344;14.886;2022-10-22T06:36:46;100865.23;;;14.38;76.90
40692;BME280;26377;53.344;14.886;2022-10-22T06:39:15;100865.98;;;14.40;76.89
40692;BME280;26377;53.344;14.886;2022-10-22T06:41:43;100870.25;;;14.43;76.89
40692;BME280;26377;53.344;14.886;2022-10-22T06:44:16;100870.90;;;14.46;76.91
40692;BME280;26377;53.344;14.886;2022-10-22T06:46:44;100865.37;;;14.49;76.91
40692;BME280;26377;53.344;14.886;2022-10-22T06:49:19;100867.34;;;14.53;76.92
40692;BME280;26377;53.344;14.886;2022-10-22T06:51:51;100868.86;;;14.57;76.95
40692;BME280;26377;53.344;14.886;2022-10-22T06:54:22;100868.44;;;14.63;76.98
40692;BME280;26377;53.344;14.886;2022-10-22T06:56:52;100875.70;;;14.68;76.97
40692;BME280;26377;53.344;14.886;2022-10-22T06:59:20;100885.09;;;14.73;76.98
40692;BME280;26377;53.344;14.886;2022-10-22T07:01:47;100884.03;;;14.76;76.96
40692;BME280;26377;53.344;14.886;2022-10-22T07:04:15;100887.38;;;14.79;76.97
40692;BME280;26377;53.344;14.886;2022-10-22T07:06:44;100892.02;;;14.83;76.97
40692;BME280;26377;53.344;14.886;2022-10-22T07:09:13;100896.20;;;14.87;76.98
40692;BME280;26377;53.344;14.886;2022-10-22T07:11:43;100895.14;;;14.89;76.96
40692;BME280;26377;53.344;14.886;2022-10-22T07:14:13;100898.08;;;14.92;76.95
40692;BME280;26377;53.344;14.886;2022-10-22T07:16:41;100903.33;;;14.93;76.95
40692;BME280;26377;53.344;14.886;2022-10-22T07:19:10;100904.93;;;14.96;76.93
40692;BME280;26377;53.344;14.886;2022-10-22T07:21:38;100897.75;;;14.96;76.92
40692;BME280;26377;53.344;14.886;2022-10-22T07:24:06;100901.19;;;14.98;76.90
40692;BME280;26377;53.344;14.886;2022-10-22T07:26:33;100903.27;;;15.00;76.92
40692;BME280;26377;53.344;14.886;2022-10-22T07:29:03;100912.42;;;15.03;76.94
40692;BME280;26377;53.344;14.886;2022-10-22T07:31:35;100913.16;;;15.05;76.93
40692;BME280;26377;53.344;14.886;2022-10-22T07:34:04;100920.02;;;15.09;76.90
40692;BME280;26377;53.344;14.886;2022-10-22T07:36:31;100912.86;;;15.10;76.91
40692;BME280;26377;53.344;14.886;2022-10-22T07:39:00;100915.21;;;15.14;76.96
40692;BME280;26377;53.344;14.886;2022-10-22T07:41:28;100918.05;;;15.18;76.97
40692;BME280;26377;53.344;14.886;2022-10-22T07:43:57;100920.02;;;15.22;77.01
40692;BME280;26377;53.344;14.886;2022-10-22T07:46:25;100928.31;;;15.24;76.96
40692;BME280;26377;53.344;14.886;2022-10-22T07:48:53;100925.08;;;15.26;76.92
40692;BME280;26377;53.344;14.886;2022-10-22T07:51:22;100927.75;;;15.26;76.90
40692;BME280;26377;53.344;14.886;2022-10-22T07:53:51;100922.67;;;15.29;76.92
40692;BME280;26377;53.344;14.886;2022-10-22T07:56:20;100925.71;;;15.30;76.88
40692;BME280;26377;53.344;14.886;2022-10-22T07:58:50;100934.97;;;15.31;76.88
40692;BME280;26377;53.344;14.886;2022-10-22T08:01:19;100936.67;;;15.32;76.87
40692;BME280;26377;53.344;14.886;2022-10-22T08:03:47;100933.44;;;15.34;76.92
40692;BME280;26377;53.344;14.886;2022-10-22T08:06:17;100937.74;;;15.37;76.85
40692;BME280;26377;53.344;14.886;2022-10-22T08:08:46;100936.67;;;15.39;76.88
40692;BME280;26377;53.344;14.886;2022-10-22T08:11:15;100936.95;;;15.42;76.93
40692;BME280;26377;53.344;14.886;2022-10-22T08:13:44;100941.48;;;15.47;76.95
40692;BME280;26377;53.344;14.886;2022-10-22T08:16:13;100944.20;;;15.52;76.97
40692;BME280;26377;53.344;14.886;2022-10-22T08:18:42;100947.03;;;15.56;76.98
40692;BME280;26377;53.344;14.886;2022-10-22T08:21:11;100952.08;;;15.61;76.98
40692;BME280;26377;53.344;14.886;2022-10-22T08:23:40;100951.38;;;15.64;76.93
40692;BME280;26377;53.344;14.886;2022-10-22T08:26:09;100949.44;;;15.66;76.91
40692;BME280;26377;53.344;14.886;2022-10-22T08:28:39;100954.59;;;15.69;76.86
40692;BME280;26377;53.344;14.886;2022-10-22T08:31:07;100960.30;;;15.70;76.85
40692;BME280;26377;53.344;14.886;2022-10-22T08:33:36;100961.54;;;15.72;76.84
40692;BME280;26377;53.344;14.886;2022-10-22T08:36:05;100960.20;;;15.72;76.79
40692;BME280;26377;53.344;14.886;2022-10-22T08:38:34;100959.23;;;15.73;76.82
40692;BME280;26377;53.344;14.886;2022-10-22T08:41:13;100959.50;;;15.75;76.84
40692;BME280;26377;53.344;14.886;2022-10-22T08:49:42;100961.63;;;15.83;76.80
40692;BME280;26377;53.344;14.886;2022-10-22T08:52:16;100969.82;;;15.87;76.81
40692;BME280;26377;53.344;14.886;2022-10-22T08:54:52;100976.77;;;15.89;76.80
40692;BME280;26377;53.344;14.886;2022-10-22T09:00:23;100971.17;;;15.99;76.86
40692;BME280;26377;53.344;14.886;2022-10-22T09:06:16;100972.23;;;16.09;76.78
40692;BME280;26377;53.344;14.886;2022-10-22T09:08:42;100978.68;;;16.12;76.76
40692;BME280;26377;53.344;14.886;2022-10-22T09:14:03;100978.53;;;16.21;76.72
40692;BME280;26377;53.344;14.886;2022-10-22T09:16:47;100977.19;;;16.21;76.65
40692;BME280;26377;53.344;14.886;2022-10-22T09:22:39;100981.47;;;16.23;76.68
40692;BME280;26377;53.344;14.886;2022-10-22T09:25:19;100976.95;;;16.24;76.61
40692;BME280;26377;53.344;14.886;2022-10-22T09:27:50;100983.06;;;16.26;76.64
40692;BME280;26377;53.344;14.886;2022-10-22T09:30:22;100984.30;;;16.27;76.54
40692;BME280;26377;53.344;14.886;2022-10-22T09:33:06;100990.13;;;16.27;76.46
40692;BME280;26377;53.344;14.886;2022-10-22T09:35:50;100995.58;;;16.25;76.38
40692;BME280;26377;53.344;14.886;2022-10-22T09:38:26;100992.28;;;16.22;76.34
40692;BME280;26377;53.344;14.886;2022-10-22T09:41:00;101001.38;;;16.19;76.28
40692;BME280;26377;53.344;14.886;2022-10-22T09:43:31;101002.45;;;16.17;76.25
40692;BME280;26377;53.344;14.886;2022-10-22T09:46:03;101001.33;;;16.14;76.19
40692;BME280;26377;53.344;14.886;2022-10-22T09:48:36;100998.99;;;16.09;76.18
40692;BME280;26377;53.344;14.886;2022-10-22T09:51:21;101004.71;;;16.10;76.24
40692;BME280;26377;53.344;14.886;2022-10-22T09:53:57;101006.66;;;16.08;76.22
40692;BME280;26377;53.344;14.886;2022-10-22T09:56:33;101006.92;;;16.11;76.24
40692;BME280;26377;53.344;14.886;2022-10-22T09:59:03;101005.69;;;16.09;76.22
40692;BME280;26377;53.344;14.886;2022-10-22T10:01:35;101000.53;;;16.06;76.15
40692;BME280;26377;53.344;14.886;2022-10-22T10:04:12;101008.30;;;16.04;76.11
40692;BME280;26377;53.344;14.886;2022-10-22T10:06:43;101018.27;;;16.02;76.08
40692;BME280;26377;53.344;14.886;2022-10-22T10:09:16;101025.77;;;15.97;75.99
40692;BME280;26377;53.344;14.886;2022-10-22T10:12:35;101018.05;;;15.92;76.02
40692;BME280;26377;53.344;14.886;2022-10-22T10:15:02;101021.53;;;15.87;76.01
40692;BME280;26377;53.344;14.886;2022-10-22T10:21:05;101017.95;;;15.81;76.08
40692;BME280;26377;53.344;14.886;2022-10-22T10:26:13;101012.73;;;15.73;76.07
40692;BME280;26377;53.344;14.886;2022-10-22T10:37:27;101026.55;;;15.47;76.19
40692;BME280;26377;53.344;14.886;2022-10-22T10:48:56;101031.62;;;15.45;76.28
40692;BME280;26377;53.344;14.886;2022-10-22T10:51:51;101032.12;;;15.44;76.31
40692;BME280;26377;53.344;14.886;2022-10-22T10:57:39;101030.89;;;15.43;76.33
40692;BME280;26377;53.344;14.886;2022-10-22T11:00:22;101038.64;;;15.40;76.32
40692;BME280;26377;53.344;14.886;2022-10-22T11:05:59;101036.33;;;15.41;76.38
40692;BME280;26377;53.344;14.886;2022-10-22T11:08:38;101033.56;;;15.43;76.44
40692;BME280;26377;53.344;14.886;2022-10-22T11:11:08;101032.59;;;15.44;76.46
40692;BME280;26377;53.344;14.886;2022-10-22T11:13:54;101027.15;;;15.45;76.49
40692;BME280;26377;53.344;14.886;2022-10-22T11:16:44;101033.51;;;15.50;76.55
40692;BME280;26377;53.344;14.886;2022-10-22T11:19:36;101037.32;;;15.53;76.59
40692;BME280;26377;53.344;14.886;2022-10-22T11:22:32;101038.19;;;15.53;76.53
40692;BME280;26377;53.344;14.886;2022-10-22T11:25:22;101038.93;;;15.55;76.59
40692;BME280;26377;53.344;14.886;2022-10-22T11:28:08;101041.97;;;15.56;76.59
40692;BME280;26377;53.344;14.886;2022-10-22T13:01:52;101037.06;;;16.81;76.70
40692;BME280;26377;53.344;14.886;2022-10-22T13:12:26;101042.83;;;16.87;76.61
40692;BME280;26377;53.344;14.886;2022-10-22T13:18:17;101044.89;;;16.89;76.48
40692;BME280;26377;53.344;14.886;2022-10-22T13:21:01;101040.87;;;16.89;76.55
40692;BME280;26377;53.344;14.886;2022-10-22T13:23:31;101044.00;;;17.01;76.74
40692;BME280;26377;53.344;14.886;2022-10-22T13:26:11;101037.75;;;17.19;76.94
40692;BME280;26377;53.344;14.886;2022-10-22T13:28:48;101040.82;;;17.43;77.09
40692;BME280;26377;53.344;14.886;2022-10-22T13:31:26;101039.92;;;17.66;77.08
40692;BME280;26377;53.344;14.886;2022-10-22T13:34:05;101039.84;;;17.90;77.10
40692;BME280;26377;53.344;14.886;2022-10-22T13:36:36;101040.02;;;18.05;76.93
40692;BME280;26377;53.344;14.886;2022-10-22T13:39:05;101038.55;;;18.28;76.98
40692;BME280;26377;53.344;14.886;2022-10-22T13:41:37;101042.84;;;18.47;76.77
40692;BME280;26377;53.344;14.886;2022-10-22T13:44:04;101046.77;;;18.60;76.62
40692;BME280;26377;53.344;14.886;2022-10-22T13:46:31;101049.67;;;18.68;76.48
40692;BME280;26377;53.344;14.886;2022-10-22T13:49:03;101045.77;;;18.72;76.29
40692;BME280;26377;53.344;14.886;2022-10-22T13:51:33;101054.06;;;18.69;75.93
40692;BME280;26377;53.344;14.886;2022-10-22T13:54:03;101055.67;;;18.60;75.66
40692;BME280;26377;53.344;14.886;2022-10-22T13:56:35;101056.16;;;18.49;75.46
40692;BME280;26377;53.344;14.886;2022-10-22T13:59:05;101058.48;;;18.42;75.41
40692;BME280;26377;53.344;14.886;2022-10-22T14:01:32;101061.55;;;18.38;75.19
40692;BME280;26377;53.344;14.886;2022-10-22T14:04:02;101055.77;;;18.31;75.15
40692;BME280;26377;53.344;14.886;2022-10-22T14:06:32;101057.34;;;18.28;75.10
40692;BME280;26377;53.344;14.886;2022-10-22T14:09:05;101059.42;;;18.25;75.07
40692;BME280;26377;53.344;14.886;2022-10-22T14:11:36;101060.16;;;18.21;75.07
40692;BME280;26377;53.344;14.886;2022-10-22T14:14:05;101061.63;;;18.20;75.05
40692;BME280;26377;53.344;14.886;2022-10-22T14:16:37;101061.73;;;18.18;74.98
40692;BME280;26377;53.344;14.886;2022-10-22T14:19:09;101060.63;;;18.15;74.93
40692;BME280;26377;53.344;14.886;2022-10-22T14:21:39;101061.85;;;18.17;74.91
40692;BME280;26377;53.344;14.886;2022-10-22T14:24:08;101062.36;;;18.16;74.78
40692;BME280;26377;53.344;14.886;2022-10-22T14:26:39;101069.30;;;18.13;74.65
40692;BME280;26377;53.344;14.886;2022-10-22T14:29:08;101069.05;;;18.11;74.60
40692;BME280;26377;53.344;14.886;2022-10-22T14:31:37;101066.95;;;18.09;74.57
40692;BME280;26377;53.344;14.886;2022-10-22T14:34:10;101076.50;;;18.07;74.57
40692;BME280;26377;53.344;14.886;2022-10-22T14:36:40;101074.52;;;18.04;74.39
40692;BME280;26377;53.344;14.886;2022-10-22T14:39:10;101073.66;;;17.98;74.35
40692;BME280;26377;53.344;14.886;2022-10-22T14:41:40;101070.59;;;17.91;74.28
40692;BME280;26377;53.344;14.886;2022-10-22T14:44:12;101074.13;;;17.86;74.22
40692;BME280;26377;53.344;14.886;2022-10-22T14:46:41;101080.45;;;17.80;74.18
40692;BME280;26377;53.344;14.886;2022-10-22T14:49:09;101080.81;;;17.75;74.15
40692;BME280;26377;53.344;14.886;2022-10-22T14:51:38;101085.17;;;17.71;74.18
40692;BME280;26377;53.344;14.886;2022-10-22T14:54:06;101086.38;;;17.67;74.20
40692;BME280;26377;53.344;14.886;2022-10-22T14:56:33;101083.08;;;17.63;74.12
40692;BME280;26377;53.344;14.886;2022-10-22T14:59:02;101087.07;;;17.58;74.05
40692;BME280;26377;53.344;14.886;2022-10-22T15:01:30;101089.03;;;17.56;74.10
40692;BME280;26377;53.344;14.886;2022-10-22T15:03:57;101087.07;;;17.52;74.04
40692;BME280;26377;53.344;14.886;2022-10-22T15:06:24;101087.52;;;17.46;74.00
40692;BME280;26377;53.344;14.886;2022-10-22T15:08:51;101090.30;;;17.39;73.89
40692;BME280;26377;53.344;14.886;2022-10-22T15:11:19;101097.04;;;17.32;73.83
40692;BME280;26377;53.344;14.886;2022-10-22T15:13:48;101099.56;;;17.23;73.78
40692;BME280;26377;53.344;14.886;2022-10-22T15:16:18;101105.50;;;17.15;73.74
40692;BME280;26377;53.344;14.886;2022-10-22T15:18:46;101107.41;;;17.08;73.75
40692;BME280;26377;53.344;14.886;2022-10-22T15:21:20;101105.97;;;16.97;73.73
40692;BME280;26377;53.344;14.886;2022-10-22T15:23:47;101106.53;;;16.89;73.62
40692;BME280;26377;53.344;14.886;2022-10-22T15:26:15;101110.48;;;16.78;73.60
40692;BME280;26377;53.344;14.886;2022-10-22T15:28:44;101105.89;;;16.68;73.53
40692;BME280;26377;53.344;14.886;2022-10-22T15:31:13;101111.17;;;16.57;73.45
40692;BME280;26377;53.344;14.886;2022-10-22T15:33:41;101111.42;;;16.47;73.47
40692;BME280;26377;53.344;14.886;2022-10-22T15:36:14;101118.86;;;16.36;73.43
40692;BME280;26377;53.344;14.886;2022-10-22T15:38:46;101125.33;;;16.27;73.45
40692;BME280;26377;53.344;14.886;2022-10-22T15:41:13;101119.00;;;16.15;73.46
40692;BME280;26377;53.344;14.886;2022-10-22T15:43:40;101125.86;;;16.07;73.49
40692;BME280;26377;53.344;14.886;2022-10-22T15:46:15;101131.73;;;15.99;73.54
40692;BME280;26377;53.344;14.886;2022-10-22T15:48:44;101133.10;;;15.92;73.68
40692;BME280;26377;53.344;14.886;2022-10-22T15:51:15;101140.69;;;15.86;73.73